Time;durP1;ratioP1;P1;durP2;ratioP2;P2;SDS_P1;SDS_P2;PMS_P1;PMS_P2;Temp;Humidity;BMP_temperature;BMP_pressure;BME280_temperature;BME280_humidity;BME280_pressure;Samples;Min_cycle;Max_cycle;Signal;HPM_P1;HPM_P2
2021/06/05 00:01:07;;;;;;;;;;;;;;;18.79;69.33;101550.97;5092238;28;1666;-47
2021/06/05 00:03:42;;;;;;;;;;;;;;;18.80;69.40;101562.53;5075035;28;1999;-47
2021/06/05 00:06:10;;;;;;;;;;;;;;;18.79;69.43;101552.78;5084434;28;1980;-47
2021/06/05 00:08:36;;;;;;;;;;;;;;;18.78;69.32;101545.69;5091851;28;1614;-47
2021/06/05 00:11:04;;;;;;;;;;;;;;;18.78;69.29;101556.41;5092086;28;1663;-46
2021/06/05 00:13:32;;;;;;;;;;;;;;;18.78;69.30;101559.09;5092677;28;1594;-46
2021/06/05 00:15:59;;;;;;;;;;;;;;;18.78;69.51;101556.41;5092443;28;1687;-47
2021/06/05 00:18:26;;;;;;;;;;;;;;;18.76;69.57;101548.53;5083567;28;1587;-47
2021/06/05 00:20:52;;;;;;;;;;;;;;;18.76;69.09;101556.56;5088789;28;1326;-46
2021/06/05 00:23:21;;;;;;;;;;;;;;;18.74;69.02;101554.94;5090747;28;1861;-47
2021/06/05 00:25:49;;;;;;;;;;;;;;;18.76;69.30;101553.00;5089073;28;1984;-47
2021/06/05 00:28:15;;;;;;;;;;;;;;;18.75;69.25;101546.78;5090164;28;1595;-46
2021/06/05 00:30:42;;;;;;;;;;;;;;;18.74;69.10;101557.63;5089264;28;1502;-46
2021/06/05 00:33:18;;;;;;;;;;;;;;;18.74;69.00;101558.50;5090169;28;1600;-47
2021/06/05 00:35:45;;;;;;;;;;;;;;;18.72;68.85;101559.56;5092566;28;1400;-46
2021/06/05 00:38:12;;;;;;;;;;;;;;;18.76;69.35;101564.59;5092503;28;1805;-46
2021/06/05 00:43:31;;;;;;;;;;;;;;;18.74;69.31;101542.41;5086474;28;2239;-47
2021/06/05 00:45:58;;;;;;;;;;;;;;;18.75;69.30;101554.84;5086597;28;1980;-47
2021/06/05 00:48:25;;;;;;;;;;;;;;;18.74;69.16;101549.59;5090080;28;1741;-47
2021/06/05 00:50:51;;;;;;;;;;;;;;;18.71;69.19;101541.78;5094451;28;1836;-47
2021/06/05 00:53:18;;;;;;;;;;;;;;;18.74;69.19;101549.59;5093949;28;1416;-47
2021/06/05 00:55:48;;;;;;;;;;;;;;;18.73;69.28;101542.53;5086218;28;1719;-47
2021/06/05 00:58:14;;;;;;;;;;;;;;;18.69;69.00;101532.03;5094547;28;1614;-47
2021/06/05 01:00:42;;;;;;;;;;;;;;;18.71;69.61;101539.09;5095562;28;1011;-47
2021/06/05 01:03:08;;;;;;;;;;;;;;;18.71;69.09;101539.09;5094781;28;1765;-46
2021/06/05 01:05:35;;;;;;;;;;;;;;;18.71;69.31;101547.16;5094955;28;1916;-47
2021/06/05 01:08:04;;;;;;;;;;;;;;;18.69;68.90;101547.25;5095433;28;1756;-47
2021/06/05 01:10:33;;;;;;;;;;;;;;;18.67;69.14;101533.97;5094922;28;1392;-46
2021/06/05 01:13:06;;;;;;;;;;;;;;;18.74;69.10;101546.91;5094908;28;1522;-47
2021/06/05 01:15:38;;;;;;;;;;;;;;;18.69;69.40;101534.72;5090980;28;1756;-47
2021/06/05 01:18:06;;;;;;;;;;;;;;;18.68;68.78;101535.69;5095259;28;1859;-47
2021/06/05 01:20:36;;;;;;;;;;;;;;;18.64;69.30;101522.63;5092902;28;1586;-46
2021/06/05 01:23:20;;;;;;;;;;;;;;;18.71;68.78;101541.78;5095401;28;1792;-47
2021/06/05 01:25:58;;;;;;;;;;;;;;;18.68;68.81;101546.41;5086166;28;1910;-46
2021/06/05 01:28:26;;;;;;;;;;;;;;;18.67;69.05;101539.31;5085535;28;1787;-47
2021/06/05 01:30:54;;;;;;;;;;;;;;;18.69;68.97;101532.03;5094164;28;1587;-47
2021/06/05 01:33:22;;;;;;;;;;;;;;;18.67;69.03;101528.59;5095151;28;1614;-47
2021/06/05 01:35:48;;;;;;;;;;;;;;;18.66;69.31;101537.63;5096315;28;1082;-46
2021/06/05 01:38:27;;;;;;;;;;;;;;;18.67;69.59;101541.16;5093395;28;1535;-47
2021/06/05 01:41:09;;;;;;;;;;;;;;;18.66;69.29;101529.59;5079477;28;1599;-47
2021/06/05 01:43:45;;;;;;;;;;;;;;;18.66;69.27;101543.00;5090058;28;1659;-47
2021/06/05 01:46:11;;;;;;;;;;;;;;;18.66;69.22;101536.75;5093796;28;1910;-47
2021/06/05 01:48:39;;;;;;;;;;;;;;;18.63;69.11;101537.84;5095954;28;1135;-46
2021/06/05 01:51:14;;;;;;;;;;;;;;;18.60;68.98;101526.50;5092939;28;1755;-47
2021/06/05 01:53:45;;;;;;;;;;;;;;;18.64;69.21;101527.97;5084978;28;2040;-46
2021/06/05 01:56:13;;;;;;;;;;;;;;;18.62;69.12;101519.19;5093158;28;2412;-47
2021/06/05 01:58:42;;;;;;;;;;;;;;;18.61;69.13;101529.06;5085101;28;1699;-47
2021/06/05 02:01:08;;;;;;;;;;;;;;;18.61;68.97;101536.25;5094823;23;3813;-81
2021/06/05 02:03:41;;;;;;;;;;;;;;;18.62;69.21;101538.84;5055738;28;1561;-81
2021/06/05 02:06:07;;;;;;;;;;;;;;;18.62;69.02;101530.78;5054834;28;1971;-81
2021/06/05 02:08:35;;;;;;;;;;;;;;;18.62;69.04;101532.59;5051025;28;1462;-81
2021/06/05 02:11:03;;;;;;;;;;;;;;;18.61;69.04;101530.91;5061054;28;1445;-82
2021/06/05 02:13:32;;;;;;;;;;;;;;;18.62;68.99;101540.63;5058307;28;1708;-80
2021/06/05 02:16:04;;;;;;;;;;;;;;;18.60;68.98;101531.84;5066770;28;1410;-79
2021/06/05 02:18:32;;;;;;;;;;;;;;;18.59;68.91;101536.38;5055041;28;1617;-82
2021/06/05 02:21:01;;;;;;;;;;;;;;;18.61;68.94;101530.91;5058329;28;1581;-79
2021/06/05 02:23:34;;;;;;;;;;;;;;;18.60;69.04;101535.41;5049795;28;1542;-82
2021/06/05 02:26:01;;;;;;;;;;;;;;;18.60;68.88;101532.72;5050869;28;1977;-80
2021/06/05 02:28:27;;;;;;;;;;;;;;;18.60;68.85;101538.09;5055288;28;1429;-80
2021/06/05 02:30:55;;;;;;;;;;;;;;;18.60;68.74;101530.06;5052725;28;1433;-78
2021/06/05 02:33:22;;;;;;;;;;;;;;;18.58;68.74;101533.78;5055366;28;1321;-79
2021/06/05 02:35:50;;;;;;;;;;;;;;;18.57;68.63;101524.91;5059880;28;1057;-79
2021/06/05 02:38:23;;;;;;;;;;;;;;;18.60;68.66;101527.38;5049673;28;1720;-80
2021/06/05 02:40:50;;;;;;;;;;;;;;;18.58;68.76;101526.63;5035519;28;1733;-79
2021/06/05 02:43:23;;;;;;;;;;;;;;;18.58;68.65;101517.72;5084820;28;1530;-82
2021/06/05 02:45:52;;;;;;;;;;;;;;;18.59;68.82;101516.78;5074127;28;1906;-82
2021/06/05 02:48:18;;;;;;;;;;;;;;;18.59;68.60;101520.28;5084032;28;1719;-79
2021/06/05 02:50:48;;;;;;;;;;;;;;;18.59;68.61;101525.66;5069813;28;1544;-79
2021/06/05 02:53:15;;;;;;;;;;;;;;;18.59;68.47;101531.00;5077359;28;1758;-80
2021/06/05 02:55:41;;;;;;;;;;;;;;;18.54;68.68;101522.44;5072510;28;1650;-79
2021/06/05 02:58:07;;;;;;;;;;;;;;;18.58;68.65;101540.03;5091874;28;1475;-79
2021/06/05 03:00:42;;;;;;;;;;;;;;;18.54;68.47;101533.16;5074312;28;1788;-80
2021/06/05 03:03:10;;;;;;;;;;;;;;;18.58;68.72;101532.00;5072952;28;1284;-79
2021/06/05 03:05:39;;;;;;;;;;;;;;;18.54;68.62;101533.16;5077577;28;1969;-80
2021/06/05 03:08:08;;;;;;;;;;;;;;;18.56;68.50;101536.63;5068187;28;1736;-79
2021/06/05 03:10:34;;;;;;;;;;;;;;;18.58;68.55;101526.63;5080572;28;1623;-79
2021/06/05 03:13:01;;;;;;;;;;;;;;;18.59;68.64;101531.00;5067925;28;1509;-79
2021/06/05 03:15:27;;;;;;;;;;;;;;;18.57;68.33;101542.81;5073952;28;1369;-82
2021/06/05 03:17:54;;;;;;;;;;;;;;;18.61;68.25;101536.25;5075733;28;1480;-78
2021/06/05 03:20:24;;;;;;;;;;;;;;;18.59;68.71;101525.66;5074759;28;1615;-83
2021/06/05 03:22:54;;;;;;;;;;;;;;;18.61;68.54;101531.75;5069439;28;1521;-81
2021/06/05 03:25:22;;;;;;;;;;;;;;;18.59;68.56;101531.00;5077418;28;1976;-82
2021/06/05 03:27:49;;;;;;;;;;;;;;;18.62;68.39;101537.94;5082325;28;1627;-79
2021/06/05 03:30:16;;;;;;;;;;;;;;;18.59;68.82;101541.72;5077353;28;1588;-80
2021/06/05 03:32:43;;;;;;;;;;;;;;;18.57;68.64;101527.59;5075956;28;1785;-82
2021/06/05 03:35:11;;;;;;;;;;;;;;;18.57;68.60;101532.94;5082157;28;1501;-82
2021/06/05 03:37:38;;;;;;;;;;;;;;;18.58;68.47;101528.44;5055971;28;1723;-79
2021/06/05 03:40:07;;;;;;;;;;;;;;;18.58;68.71;101529.31;5074546;28;1356;-81
2021/06/05 03:42:34;;;;;;;;;;;;;;;18.60;68.55;101524.69;5077107;23;3635;-46
2021/06/05 03:45:00;;;;;;;;;;;;;;;18.59;68.42;101516.78;5038765;28;1914;-46
2021/06/05 03:47:26;;;;;;;;;;;;;;;18.59;68.63;101514.94;5040756;28;1861;-46
2021/06/05 03:49:53;;;;;;;;;;;;;;;18.61;68.47;101529.06;5041077;28;1647;-46
2021/06/05 03:52:22;;;;;;;;;;;;;;;18.61;68.69;101513.00;5043018;28;1695;-46
2021/06/05 03:54:48;;;;;;;;;;;;;;;18.60;68.35;101513.97;5043433;28;1517;-46
2021/06/05 03:57:14;;;;;;;;;;;;;;;18.63;68.51;101521.78;5038610;28;1910;-46
2021/06/05 03:59:42;;;;;;;;;;;;;;;18.65;68.32;101524.34;5043896;28;1834;-45
2021/06/05 04:02:08;;;;;;;;;;;;;;;18.64;68.45;101527.97;5052133;28;1811;-46
2021/06/05 04:04:34;;;;;;;;;;;;;;;18.65;68.38;101527.03;5061366;28;1793;-46
2021/06/05 04:07:00;;;;;;;;;;;;;;;18.65;68.18;101525.19;5066159;28;1963;-46
2021/06/05 04:09:26;;;;;;;;;;;;;;;18.66;68.34;101521.56;5058811;28;1631;-47
2021/06/05 04:11:51;;;;;;;;;;;;;;;18.65;68.35;101519.84;5061096;28;1921;-46
2021/06/05 04:14:17;;;;;;;;;;;;;;;18.66;68.34;101529.59;5063354;28;1697;-46
2021/06/05 04:16:45;;;;;;;;;;;;;;;18.68;68.47;101524.97;5061597;28;1800;-46
2021/06/05 04:19:12;;;;;;;;;;;;;;;18.67;68.50;101525.94;5061854;28;1905;-46
2021/06/05 04:21:39;;;;;;;;;;;;;;;18.68;68.33;101522.28;5071095;28;1893;-46
2021/06/05 04:24:05;;;;;;;;;;;;;;;18.69;68.28;101515.94;5069087;28;2119;-46
2021/06/05 04:26:31;;;;;;;;;;;;;;;18.77;67.49;101518.06;5063028;28;1975;-46
2021/06/05 04:28:58;;;;;;;;;;;;;;;18.83;68.24;101522.97;5065076;28;1615;-46
2021/06/05 04:31:24;;;;;;;;;;;;;;;18.92;67.78;101515.22;5062525;28;1837;-46
2021/06/05 04:33:51;;;;;;;;;;;;;;;18.93;67.94;101519.63;5058477;28;1649;-46
2021/06/05 04:36:17;;;;;;;;;;;;;;;18.90;68.38;101511.78;5074253;28;1705;-46
2021/06/05 04:38:43;;;;;;;;;;;;;;;19.03;67.86;101523.31;5071741;28;1664;-46
2021/06/05 04:41:11;;;;;;;;;;;;;;;19.11;67.35;101512.00;5067278;28;2204;-46
2021/06/05 04:43:38;;;;;;;;;;;;;;;19.22;67.01;101520.06;5064561;28;1876;-48
2021/06/05 04:46:04;;;;;;;;;;;;;;;19.28;66.99;101523.13;5066146;28;1898;-46
2021/06/05 04:48:30;;;;;;;;;;;;;;;19.32;66.87;101525.56;5062677;28;1626;-46
2021/06/05 04:50:58;;;;;;;;;;;;;;;19.44;66.57;101527.31;5062547;28;1940;-46
2021/06/05 04:53:24;;;;;;;;;;;;;;;19.51;66.45;101512.41;5071343;28;2136;-46
2021/06/05 04:55:50;;;;;;;;;;;;;;;19.55;66.71;101513.88;5066830;28;1580;-46
2021/06/05 04:58:17;;;;;;;;;;;;;;;19.58;66.53;101518.16;5073746;28;1715;-46
2021/06/05 05:00:44;;;;;;;;;;;;;;;19.65;66.32;101511.31;5063836;28;1075;-45
2021/06/05 05:03:11;;;;;;;;;;;;;;;19.72;66.35;101509.06;5066475;28;1952;-46
2021/06/05 05:05:37;;;;;;;;;;;;;;;19.76;65.45;101510.53;5059933;28;1902;-47
2021/06/05 05:08:05;;;;;;;;;;;;;;;19.78;65.62;101505.88;5071557;28;1771;-46
2021/06/05 05:10:34;;;;;;;;;;;;;;;19.82;65.82;101513.56;5070671;28;1931;-46
2021/06/05 05:13:01;;;;;;;;;;;;;;;19.82;65.50;101513.56;5063613;28;1841;-46
2021/06/05 05:15:27;;;;;;;;;;;;;;;19.82;65.73;101518.94;5064331;28;1461;-48
2021/06/05 05:17:53;;;;;;;;;;;;;;;19.85;65.88;101507.94;5062289;28;1760;-45
2021/06/05 05:20:21;;;;;;;;;;;;;;;19.87;65.54;101518.56;5068229;28;1922;-46
2021/06/05 05:22:47;;;;;;;;;;;;;;;19.84;65.58;101516.97;5072573;28;2267;-46
2021/06/05 05:25:15;;;;;;;;;;;;;;;19.80;65.49;101517.34;5068651;28;1937;-46
2021/06/05 05:27:41;;;;;;;;;;;;;;;19.81;66.00;101509.16;5065095;28;1784;-46
2021/06/05 05:30:11;;;;;;;;;;;;;;;19.79;65.91;101510.25;5063113;28;1015;-46
2021/06/05 05:32:37;;;;;;;;;;;;;;;19.78;65.82;101516.63;5057187;28;1754;-46
2021/06/05 05:35:04;;;;;;;;;;;;;;;19.73;66.37;101519.66;5070160;28;1607;-46
2021/06/05 05:37:31;;;;;;;;;;;;;;;19.70;66.18;101516.34;5072872;28;1812;-46
2021/06/05 05:39:58;;;;;;;;;;;;;;;19.68;66.89;101513.78;5016503;28;1111;-46
2021/06/05 05:42:26;;;;;;;;;;;;;;;19.66;66.55;101518.41;5062369;28;1822;-46
2021/06/05 05:44:53;;;;;;;;;;;;;;;19.64;66.75;101509.63;5056227;28;1910;-46
2021/06/05 05:47:27;;;;;;;;;;;;;;;19.65;66.59;101514.84;5070387;28;1902;-46
2021/06/05 05:49:54;;;;;;;;;;;;;;;19.64;66.68;101518.53;5070077;28;1873;-46
2021/06/05 05:52:29;;;;;;;;;;;;;;;19.58;67.48;101508.28;5073353;28;1781;-46
2021/06/05 05:54:55;;;;;;;;;;;;;;;19.58;67.54;101512.81;5058198;28;1659;-46
2021/06/05 05:57:21;;;;;;;;;;;;;;;19.57;67.74;101501.19;5056783;28;1979;-46
2021/06/05 06:00:00;;;;;;;;;;;;;;;19.56;67.55;101520.13;5072331;28;1918;-46
2021/06/05 06:02:26;;;;;;;;;;;;;;;19.52;67.70;101506.09;5066423;28;1600;-45
2021/06/05 06:04:53;;;;;;;;;;;;;;;19.51;67.24;101500.84;5069844;28;2047;-46
2021/06/05 06:07:23;;;;;;;;;;;;;;;19.50;67.51;101509.84;5067505;28;1997;-47
2021/06/05 06:09:50;;;;;;;;;;;;;;;19.48;67.42;101497.44;5061002;28;1071;-46
2021/06/05 06:12:17;;;;;;;;;;;;;;;19.51;67.36;101511.56;5069997;28;2086;-46
2021/06/05 06:14:43;;;;;;;;;;;;;;;19.51;67.58;101517.78;5059107;28;1676;-46
2021/06/05 06:17:11;;;;;;;;;;;;;;;19.50;67.77;101496.44;5066231;28;1635;-46
2021/06/05 06:19:37;;;;;;;;;;;;;;;19.50;67.92;101515.22;5065057;28;1632;-46
2021/06/05 06:22:04;;;;;;;;;;;;;;;19.46;68.10;101501.22;5057376;28;969;-46
2021/06/05 06:24:30;;;;;;;;;;;;;;;19.50;67.87;101499.13;5064658;28;1639;-46
2021/06/05 06:26:56;;;;;;;;;;;;;;;19.51;68.13;101504.38;5063350;28;1914;-46
2021/06/05 06:29:29;;;;;;;;;;;;;;;19.55;67.56;101502.31;5062141;28;1565;-46
2021/06/05 06:31:55;;;;;;;;;;;;;;;19.57;67.44;101506.56;5066164;28;1763;-46
2021/06/05 06:34:23;;;;;;;;;;;;;;;19.57;67.77;101506.56;5066813;28;1890;-46
2021/06/05 06:36:50;;;;;;;;;;;;;;;19.60;68.25;101490.25;5067562;28;1111;-46
2021/06/05 06:39:17;;;;;;;;;;;;;;;19.72;67.98;101498.31;5070217;28;1448;-47
2021/06/05 06:41:43;;;;;;;;;;;;;;;19.75;66.97;101493.53;5062439;28;1730;-47
2021/06/05 06:44:10;;;;;;;;;;;;;;;19.74;67.79;101477.59;5057687;28;1720;-47
2021/06/05 06:46:37;;;;;;;;;;;;;;;19.74;67.88;101493.69;5068115;28;2138;-47
2021/06/05 06:49:04;;;;;;;;;;;;;;;19.76;67.96;101484.53;5062786;28;1604;-47
2021/06/05 06:51:31;;;;;;;;;;;;;;;19.74;67.36;101488.31;5068019;28;1124;-47
2021/06/05 06:53:57;;;;;;;;;;;;;;;19.72;68.14;101501.84;5065693;28;1490;-47
2021/06/05 06:56:24;;;;;;;;;;;;;;;19.74;67.47;101489.16;5068900;28;1671;-47
2021/06/05 06:58:50;;;;;;;;;;;;;;;19.73;68.16;101495.50;5068861;28;1610;-46
2021/06/05 07:01:17;;;;;;;;;;;;;;;19.79;67.58;101503.06;5068243;28;1719;-47
2021/06/05 07:03:43;;;;;;;;;;;;;;;19.81;67.24;101482.31;5065769;28;1727;-48
2021/06/05 07:06:09;;;;;;;;;;;;;;;19.79;67.92;101484.28;5062789;28;1905;-46
2021/06/05 07:08:38;;;;;;;;;;;;;;;19.95;66.88;101461.56;5067418;28;1797;-47
2021/06/05 07:11:06;;;;;;;;;;;;;;;19.90;67.96;101472.69;5070066;28;1786;-47
2021/06/05 07:13:32;;;;;;;;;;;;;;;19.85;67.83;101477.56;5069671;28;1405;-47
2021/06/05 07:15:59;;;;;;;;;;;;;;;19.84;67.41;101475.88;5070057;28;1588;-48
2021/06/05 07:18:35;;;;;;;;;;;;;;;19.95;68.36;101472.31;5070932;28;1534;-47
2021/06/05 07:21:01;;;;;;;;;;;;;;;19.96;67.18;101474.03;5061196;28;1737;-47
2021/06/05 07:23:28;;;;;;;;;;;;;;;19.91;67.32;101469.00;5067996;28;1656;-49
2021/06/05 07:25:57;;;;;;;;;;;;;;;19.94;67.51;101467.94;5065536;28;1919;-47
2021/06/05 07:28:24;;;;;;;;;;;;;;;19.95;67.00;101465.09;5066403;28;1586;-47
2021/06/05 07:30:50;;;;;;;;;;;;;;;20.00;66.59;101459.38;5059487;28;1797;-47
2021/06/05 07:33:17;;;;;;;;;;;;;;;19.97;66.87;101443.50;5061447;28;1763;-47
2021/06/05 07:38:26;;;;;;;;;;;;;;;20.01;67.44;101461.06;5059006;28;1907;-47
2021/06/05 07:41:09;;;;;;;;;;;;;;;19.97;67.48;101455.09;5052215;28;2011;-48
2021/06/05 07:43:49;;;;;;;;;;;;;;;20.11;66.82;101440.53;5054823;28;2058;-47
2021/06/05 07:49:01;;;;;;;;;;;;;;;20.14;66.23;101448.34;5070988;28;2284;-47
2021/06/05 07:51:29;;;;;;;;;;;;;;;20.09;67.05;101441.66;5072519;28;1003;-47
2021/06/05 07:53:57;;;;;;;;;;;;;;;20.09;66.82;101437.13;5070658;28;1758;-47
2021/06/05 07:56:49;;;;;;;;;;;;;;;20.11;67.13;101443.22;5059870;28;2039;-46
2021/06/05 07:59:18;;;;;;;;;;;;;;;20.12;66.75;101444.09;5052176;28;1721;-47
2021/06/05 08:01:50;;;;;;;;;;;;;;;20.09;68.80;101430.91;5059425;28;1699;-46
2021/06/05 08:04:17;;;;;;;;;;;;;;;20.12;67.26;101425.28;5070482;28;1901;-47
2021/06/05 08:06:46;;;;;;;;;;;;;;;20.10;69.72;101420.03;5070630;28;1986;-47
2021/06/05 08:09:12;;;;;;;;;;;;;;;20.08;67.67;101422.00;5064012;28;1958;-46
2021/06/05 08:11:38;;;;;;;;;;;;;;;20.10;66.90;101438.84;5063701;28;1717;-47
2021/06/05 08:14:05;;;;;;;;;;;;;;;20.08;68.22;101423.84;5064840;28;1737;-47
2021/06/05 08:16:34;;;;;;;;;;;;;;;20.07;69.54;101433.72;5063161;28;1345;-47
2021/06/05 08:19:02;;;;;;;;;;;;;;;20.07;66.80;101417.59;5063538;28;1605;-47
2021/06/05 08:21:28;;;;;;;;;;;;;;;20.13;67.76;101429.66;5068885;28;1333;-47
2021/06/05 08:23:54;;;;;;;;;;;;;;;20.10;67.00;101420.03;5067906;28;1620;-46
2021/06/05 08:26:20;;;;;;;;;;;;;;;20.06;67.54;101416.75;5065592;28;1975;-47
2021/06/05 08:28:46;;;;;;;;;;;;;;;20.04;67.51;101423.25;5064181;28;1877;-47
2021/06/05 08:31:13;;;;;;;;;;;;;;;20.04;67.31;101433.97;5069530;28;1889;-47
2021/06/05 08:33:39;;;;;;;;;;;;;;;20.09;67.55;101423.69;5063656;28;1997;-47
2021/06/05 08:36:07;;;;;;;;;;;;;;;20.18;66.44;101422.94;5062872;28;1011;-47
2021/06/05 08:38:34;;;;;;;;;;;;;;;20.24;64.34;101414.38;5065885;28;2050;-46
2021/06/05 08:41:01;;;;;;;;;;;;;;;20.32;63.37;101420.94;5062677;28;2115;-47
2021/06/05 08:43:30;;;;;;;;;;;;;;;20.24;64.21;101429.66;5068671;28;1487;-47
2021/06/05 08:45:58;;;;;;;;;;;;;;;20.18;64.33;101422.94;5067678;28;1982;-46
2021/06/05 08:48:23;;;;;;;;;;;;;;;20.11;65.27;101419.06;5068054;28;1814;-47
2021/06/05 08:50:50;;;;;;;;;;;;;;;20.09;65.36;101429.06;5067321;28;1579;-48
2021/06/05 08:53:31;;;;;;;;;;;;;;;20.18;65.25;101424.78;5058533;28;1780;-47
2021/06/05 08:56:20;;;;;;;;;;;;;;;20.05;64.80;101414.19;5068898;28;1517;-47
2021/06/05 08:58:51;;;;;;;;;;;;;;;20.01;65.56;101410.06;5069407;28;1872;-48
2021/06/05 09:01:20;;;;;;;;;;;;;;;19.95;65.74;101414.09;5069897;28;1790;-47
2021/06/05 09:03:47;;;;;;;;;;;;;;;19.97;66.24;101405.91;5058729;28;1430;-47
2021/06/05 09:06:18;;;;;;;;;;;;;;;20.08;65.95;101407.75;5066440;28;1906;-48
2021/06/05 09:09:11;;;;;;;;;;;;;;;20.13;65.93;101406.34;5070192;28;1528;-47
2021/06/05 09:11:45;;;;;;;;;;;;;;;20.11;66.31;101402.94;5061533;28;1767;-48
2021/06/05 09:14:19;;;;;;;;;;;;;;;20.14;66.44;101402.69;5056412;28;2029;-48
2021/06/05 09:16:47;;;;;;;;;;;;;;;20.09;65.75;101404.91;5067351;28;1735;-47
2021/06/05 09:19:43;;;;;;;;;;;;;;;20.08;66.51;101403.22;5069346;28;1863;-47
2021/06/05 09:22:17;;;;;;;;;;;;;;;20.13;66.60;101406.34;5071527;28;1970;-47
2021/06/05 09:24:45;;;;;;;;;;;;;;;20.02;65.99;101401.03;5062012;28;1386;-48
2021/06/05 09:27:13;;;;;;;;;;;;;;;19.99;66.38;101391.38;5072308;28;1967;-47
2021/06/05 09:29:47;;;;;;;;;;;;;;;20.00;67.08;101400.31;5061018;28;1746;-48
2021/06/05 09:34:57;;;;;;;;;;;;;;;19.97;66.44;101384.44;5069982;28;2294;-47
2021/06/05 09:37:39;;;;;;;;;;;;;;;19.95;66.64;101389.94;5071616;28;1518;-47
2021/06/05 09:40:17;;;;;;;;;;;;;;;19.95;66.99;101379.19;5066545;28;1314;-47
2021/06/05 09:42:46;;;;;;;;;;;;;;;19.95;67.95;101381.03;5067003;28;1543;-47
2021/06/05 09:45:25;;;;;;;;;;;;;;;20.05;67.74;101388.22;5063534;28;1932;-47
2021/06/05 09:48:14;;;;;;;;;;;;;;;20.04;66.53;101373.06;5057556;28;1969;-48
2021/06/05 09:50:43;;;;;;;;;;;;;;;20.03;66.06;101378.56;5071743;28;1456;-47
2021/06/05 09:53:13;;;;;;;;;;;;;;;20.05;66.72;101371.22;5068564;28;2104;-47
2021/06/05 09:55:48;;;;;;;;;;;;;;;19.99;66.09;101369.06;5071290;28;1606;-47
2021/06/05 09:58:36;;;;;;;;;;;;;;;20.01;66.63;101369.78;5073408;28;1881;-47
2021/06/05 10:01:18;;;;;;;;;;;;;;;20.08;67.47;101365.63;5063708;28;1498;-47
2021/06/05 10:03:44;;;;;;;;;;;;;;;20.10;66.10;101357.44;5061592;28;1417;-48
2021/06/05 10:06:16;;;;;;;;;;;;;;;20.04;67.10;101354.28;5068827;28;1910;-48
2021/06/05 10:08:42;;;;;;;;;;;;;;;20.02;67.14;101360.75;5063536;28;1730;-47
2021/06/05 10:11:12;;;;;;;;;;;;;;;19.98;66.81;101343.22;5062646;28;1485;-47
2021/06/05 10:13:41;;;;;;;;;;;;;;;19.98;66.79;101344.06;5059017;28;1774;-48
2021/06/05 10:16:08;;;;;;;;;;;;;;;20.01;66.04;101340.25;5064802;28;1430;-47
2021/06/05 10:18:37;;;;;;;;;;;;;;;20.00;67.05;101341.25;5065459;28;1447;-48
2021/06/05 10:21:06;;;;;;;;;;;;;;;19.99;66.53;101340.38;5066581;28;1502;-47
2021/06/05 10:23:34;;;;;;;;;;;;;;;19.99;67.45;101358.31;5064124;28;1805;-47
2021/06/05 10:26:02;;;;;;;;;;;;;;;20.09;65.83;101329.72;5060106;28;1905;-47
2021/06/05 10:28:30;;;;;;;;;;;;;;;20.06;66.16;101338.03;5042197;28;10923;-47
2021/06/05 10:31:00;;;;;;;;;;;;;;;20.11;67.44;101338.50;5030523;28;1729;-47
2021/06/05 10:33:34;;;;;;;;;;;;;;;20.23;67.11;101337.50;5031542;28;1776;-48
2021/06/05 10:36:02;;;;;;;;;;;;;;;20.14;64.68;101343.63;5040425;28;1414;-47
2021/06/05 10:38:32;;;;;;;;;;;;;;;20.16;66.19;101325.56;5029008;28;1650;-46
2021/06/05 10:40:59;;;;;;;;;;;;;;;20.10;66.66;101326.06;5031691;28;1485;-45
2021/06/05 10:43:25;;;;;;;;;;;;;;;20.08;66.67;101317.28;5039603;28;1291;-45
2021/06/05 10:45:51;;;;;;;;;;;;;;;20.10;65.77;101325.22;5029699;28;1910;-46
2021/06/05 10:48:24;;;;;;;;;;;;;;;20.17;64.00;101316.50;5030115;28;1627;-46
2021/06/05 10:50:53;;;;;;;;;;;;;;;20.18;63.96;101320.91;5032185;28;1579;-47
2021/06/05 10:53:23;;;;;;;;;;;;;;;20.25;62.90;101319.41;5029920;28;1285;-46
2021/06/05 10:55:51;;;;;;;;;;;;;;;20.22;63.31;101308.91;5027805;28;1614;-47
2021/06/05 10:58:19;;;;;;;;;;;;;;;20.18;62.98;101310.16;5032543;28;1654;-47
2021/06/05 11:00:47;;;;;;;;;;;;;;;20.23;63.83;101310.63;5029574;28;1128;-47
2021/06/05 11:03:28;;;;;;;;;;;;;;;20.25;64.08;101318.53;5032473;28;1511;-46
2021/06/05 11:06:01;;;;;;;;;;;;;;;20.53;65.62;101310.81;5028806;28;2373;-46
2021/06/05 11:08:38;;;;;;;;;;;;;;;20.80;64.02;101312.97;5029207;28;1456;-46
2021/06/05 11:11:31;;;;;;;;;;;;;;;20.94;64.67;101299.16;5027151;28;1471;-46
2021/06/05 11:14:02;;;;;;;;;;;;;;;20.47;64.24;101301.44;5027228;28;1495;-47
2021/06/05 11:16:46;;;;;;;;;;;;;;;20.29;64.84;101292.28;5029789;28;1356;-48
2021/06/05 11:19:34;;;;;;;;;;;;;;;20.25;65.51;101300.63;5028942;28;1361;-47
2021/06/05 11:22:04;;;;;;;;;;;;;;;20.23;64.84;101305.25;5027927;28;1273;-48
2021/06/05 11:24:30;;;;;;;;;;;;;;;20.21;65.87;101307.22;5031362;28;1818;-48
2021/06/05 11:26:57;;;;;;;;;;;;;;;20.16;65.06;101287.97;5030579;28;1906;-47
2021/06/05 11:29:44;;;;;;;;;;;;;;;20.20;66.18;101289.41;5028468;28;1690;-47
2021/06/05 11:32:28;;;;;;;;;;;;;;;20.14;66.07;101300.66;5028406;28;1619;-48
2021/06/05 11:35:00;;;;;;;;;;;;;;;20.17;65.61;101302.22;5024958;28;1358;-50
2021/06/05 11:37:44;;;;;;;;;;;;;;;20.12;65.19;101281.16;5012346;28;2751;-48
2021/06/05 11:40:12;;;;;;;;;;;;;;;20.05;65.25;101285.31;5035283;28;1713;-48
2021/06/05 11:42:48;;;;;;;;;;;;;;;20.13;65.76;101295.41;5038607;28;1447;-47
2021/06/05 11:45:33;;;;;;;;;;;;;;;20.13;66.19;101279.31;5038607;28;1651;-48
2021/06/05 11:48:00;;;;;;;;;;;;;;;20.11;63.74;101268.69;5024721;28;1972;-48
2021/06/05 11:50:28;;;;;;;;;;;;;;;19.77;62.18;101271.53;5029576;28;1551;-48
2021/06/05 11:53:03;;;;;;;;;;;;;;;19.72;63.88;101273.78;5029841;28;1424;-47
2021/06/05 11:55:47;;;;;;;;;;;;;;;19.73;62.19;101270.09;5030102;28;1828;-48
2021/06/05 11:58:26;;;;;;;;;;;;;;;19.64;62.23;101282.41;5031536;28;1473;-48
2021/06/05 12:01:04;;;;;;;;;;;;;;;19.59;63.38;101281.09;5027763;28;1499;-49
2021/06/05 12:03:47;;;;;;;;;;;;;;;19.58;65.20;101266.00;5029612;28;1450;-49
2021/06/05 12:06:16;;;;;;;;;;;;;;;19.57;63.18;101291.09;5029903;28;1975;-48
2021/06/05 12:08:49;;;;;;;;;;;;;;;19.59;64.06;101281.94;5029101;28;1694;-47
2021/06/05 12:11:21;;;;;;;;;;;;;;;19.65;62.97;101272.53;5032381;28;1361;-48
2021/06/05 12:14:02;;;;;;;;;;;;;;;19.65;63.37;101267.16;5035940;28;1677;-48
2021/06/05 12:16:34;;;;;;;;;;;;;;;19.57;63.01;101264.28;5036856;28;1524;-48
2021/06/05 12:19:06;;;;;;;;;;;;;;;19.57;63.24;101275.00;5032035;28;1554;-48
2021/06/05 12:21:35;;;;;;;;;;;;;;;19.46;63.23;101266.00;5036207;28;1255;-48
2021/06/05 12:24:11;;;;;;;;;;;;;;;19.51;63.21;101262.09;5032363;28;1584;-48
2021/06/05 12:26:46;;;;;;;;;;;;;;;19.60;64.33;101272.06;5029572;28;1975;-48
2021/06/05 12:29:15;;;;;;;;;;;;;;;19.56;64.11;101257.22;5018415;28;1748;-48
2021/06/05 12:31:42;;;;;;;;;;;;;;;19.55;63.78;101266.22;5020367;28;1778;-48
2021/06/05 12:34:10;;;;;;;;;;;;;;;19.53;64.21;101268.19;5021992;28;1834;-48
2021/06/05 12:36:38;;;;;;;;;;;;;;;19.52;64.02;101255.75;5019535;28;1115;-48
2021/06/05 12:42:23;;;;;;;;;;;;;;;19.51;64.33;101262.09;5024844;28;2374;-48
2021/06/05 12:44:54;;;;;;;;;;;;;;;19.49;64.24;101256.84;5014826;28;1888;-48
2021/06/05 12:47:22;;;;;;;;;;;;;;;19.51;64.38;101259.41;5026340;28;1971;-48
2021/06/05 12:49:48;;;;;;;;;;;;;;;19.47;64.18;101254.28;5024810;28;1952;-49
2021/06/05 12:52:17;;;;;;;;;;;;;;;19.52;63.89;101245.88;5022812;28;1750;-48
2021/06/05 12:54:45;;;;;;;;;;;;;;;19.52;63.77;101247.69;5026776;28;1765;-49
2021/06/05 12:57:21;;;;;;;;;;;;;;;19.54;63.72;101235.03;5021513;28;1713;-48
2021/06/05 12:59:47;;;;;;;;;;;;;;;19.60;63.94;101240.72;5027761;28;1950;-48
2021/06/05 13:02:28;;;;;;;;;;;;;;;19.63;63.75;101232.41;5024902;28;1538;-48
2021/06/05 13:04:55;;;;;;;;;;;;;;;19.63;64.21;101226.19;5024420;28;1395;-48
2021/06/05 13:07:32;;;;;;;;;;;;;;;19.65;64.58;101229.59;5029020;28;1977;-48
2021/06/05 13:09:58;;;;;;;;;;;;;;;19.62;64.17;101232.56;5024985;28;1796;-48
2021/06/05 13:12:29;;;;;;;;;;;;;;;19.61;65.13;101236.19;5029086;28;1766;-48
2021/06/05 13:15:10;;;;;;;;;;;;;;;19.56;64.51;101225.03;5031949;28;1829;-48